Time;durP1;ratioP1;P1;durP2;ratioP2;P2;SDS_P1;SDS_P2;PMS_P1;PMS_P2;Temp;Humidity;BMP_temperature;BMP_pressure;BME280_temperature;BME280_humidity;BME280_pressure;Samples;Min_cycle;Max_cycle;Signal;HPM_P1;HPM_P2
2023/04/09 00:01:57;;;;;;;3.75;1.80;;;;;;;;;;5012559;28;20128;-74
2023/04/09 00:04:23;;;;;;;2.47;2.17;;;;;;;;;;5026228;28;20037;-74
2023/04/09 00:06:49;;;;;;;3.70;1.73;;;;;;;;;;5027189;28;20033;-74
2023/04/09 00:09:16;;;;;;;2.60;1.77;;;;;;;;;;5026516;28;20022;-74
2023/04/09 00:11:42;;;;;;;3.60;1.80;;;;;;;;;;5029492;28;20025;-74
2023/04/09 00:14:08;;;;;;;4.43;1.67;;;;;;;;;;5028023;28;20030;-74
2023/04/09 00:16:34;;;;;;;8.48;1.95;;;;;;;;;;5028847;28;20082;-74
2023/04/09 00:19:00;;;;;;;2.67;1.70;;;;;;;;;;5025670;28;20033;-73
2023/04/09 00:21:27;;;;;;;3.17;2.00;;;;;;;;;;5029232;28;20018;-74
2023/04/09 00:23:53;;;;;;;2.67;1.80;;;;;;;;;;5027006;28;20079;-73
2023/04/09 00:26:20;;;;;;;2.72;2.20;;;;;;;;;;5029322;28;20029;-73
2023/04/09 00:28:46;;;;;;;4.93;2.25;;;;;;;;;;5026773;28;20421;-74
2023/04/09 00:31:12;;;;;;;2.63;1.92;;;;;;;;;;5029055;28;20025;-73
2023/04/09 00:33:38;;;;;;;2.83;2.10;;;;;;;;;;5028489;28;20017;-74
2023/04/09 00:36:05;;;;;;;3.78;2.47;;;;;;;;;;5028582;28;20102;-73
2023/04/09 00:38:31;;;;;;;3.30;2.00;;;;;;;;;;5027612;28;20032;-74
2023/04/09 00:40:57;;;;;;;5.28;2.30;;;;;;;;;;5028267;28;20040;-74
2023/04/09 00:43:23;;;;;;;3.33;2.17;;;;;;;;;;5007598;28;20033;-74
2023/04/09 00:45:50;;;;;;;3.60;2.20;;;;;;;;;;5030173;28;20021;-75
2023/04/09 00:48:16;;;;;;;2.97;2.10;;;;;;;;;;5009528;28;20763;-74
2023/04/09 00:50:43;;;;;;;4.35;2.03;;;;;;;;;;5030619;28;20524;-74
2023/04/09 00:53:10;;;;;;;3.28;2.13;;;;;;;;;;5025743;28;20040;-73
2023/04/09 00:55:36;;;;;;;3.65;2.40;;;;;;;;;;5009510;28;20033;-74
2023/04/09 00:58:02;;;;;;;3.67;2.45;;;;;;;;;;5027418;28;20084;-73
2023/04/09 01:00:29;;;;;;;2.65;2.40;;;;;;;;;;5028178;28;20641;-74
2023/04/09 01:02:57;;;;;;;6.82;3.20;;;;;;;;;;5023749;28;20044;-74
2023/04/09 01:05:25;;;;;;;3.38;2.70;;;;;;;;;;5025234;28;20021;-74
2023/04/09 01:08:08;;;;;;;5.85;2.63;;;;;;;;;;5025240;28;20029;-74
2023/04/09 01:10:37;;;;;;;6.63;2.55;;;;;;;;;;5027230;28;20056;-74
2023/04/09 01:13:07;;;;;;;3.88;2.47;;;;;;;;;;5025911;28;20029;-75
2023/04/09 01:15:35;;;;;;;8.00;2.75;;;;;;;;;;5003161;28;20513;-73
2023/04/09 01:18:10;;;;;;;3.60;2.30;;;;;;;;;;5027441;28;20343;-74
2023/04/09 01:20:40;;;;;;;3.88;2.28;;;;;;;;;;5028946;28;20032;-75
2023/04/09 01:23:09;;;;;;;5.50;2.58;;;;;;;;;;5025674;28;20128;-73
2023/04/09 01:25:41;;;;;;;2.75;2.22;;;;;;;;;;5026128;28;20079;-74
2023/04/09 01:28:15;;;;;;;4.20;2.20;;;;;;;;;;5026597;28;20029;-75
2023/04/09 01:30:43;;;;;;;3.97;2.03;;;;;;;;;;5026891;28;20027;-72
2023/04/09 01:33:09;;;;;;;6.72;2.55;;;;;;;;;;5027178;28;20029;-74
2023/04/09 01:35:36;;;;;;;4.55;2.40;;;;;;;;;;5028830;28;20029;-74
2023/04/09 01:38:03;;;;;;;3.05;2.22;;;;;;;;;;5025573;28;20021;-74
2023/04/09 01:40:29;;;;;;;5.60;2.17;;;;;;;;;;5027099;28;20026;-74
2023/04/09 01:42:56;;;;;;;2.45;2.22;;;;;;;;;;5026407;28;20038;-73
2023/04/09 01:45:22;;;;;;;4.22;2.08;;;;;;;;;;5027723;28;20029;-73
2023/04/09 01:47:49;;;;;;;2.88;1.98;;;;;;;;;;5026892;28;20033;-74
2023/04/09 01:50:15;;;;;;;3.97;2.03;;;;;;;;;;5027393;28;20813;-74
2023/04/09 01:52:41;;;;;;;2.38;1.80;;;;;;;;;;5024843;28;20607;-75
2023/04/09 01:55:07;;;;;;;3.47;2.10;;;;;;;;;;5006184;28;20029;-73
2023/04/09 01:57:34;;;;;;;4.10;1.95;;;;;;;;;;5023627;28;20621;-74
2023/04/09 02:00:00;;;;;;;3.60;1.75;;;;;;;;;;5027325;28;20057;-73
2023/04/09 02:02:35;;;;;;;3.78;1.70;;;;;;;;;;5025811;28;20033;-73
2023/04/09 02:05:04;;;;;;;4.15;1.70;;;;;;;;;;5023900;28;20073;-73
2023/04/09 02:07:42;;;;;;;4.80;2.20;;;;;;;;;;5026432;28;20021;-73
2023/04/09 02:10:08;;;;;;;4.60;2.10;;;;;;;;;;5021454;28;20025;-74
2023/04/09 02:12:36;;;;;;;4.18;2.00;;;;;;;;;;5024630;28;20130;-74
2023/04/09 02:15:03;;;;;;;3.10;2.08;;;;;;;;;;5026998;28;20493;-74
2023/04/09 02:17:29;;;;;;;6.47;2.50;;;;;;;;;;5025399;28;20037;-73
2023/04/09 02:19:55;;;;;;;2.65;1.70;;;;;;;;;;5026655;28;20030;-73
2023/04/09 02:22:22;;;;;;;8.23;1.90;;;;;;;;;;5024052;28;20025;-73
2023/04/09 02:24:48;;;;;;;7.55;2.53;;;;;;;;;;5030104;28;20045;-73
2023/04/09 02:27:15;;;;;;;5.72;2.35;;;;;;;;;;5021056;28;20030;-75
2023/04/09 02:29:41;;;;;;;4.50;2.08;;;;;;;;;;5021072;28;21822;-74
2023/04/09 02:32:07;;;;;;;7.97;2.40;;;;;;;;;;5024364;28;20033;-74
2023/04/09 02:34:34;;;;;;;4.57;1.77;;;;;;;;;;5029038;28;20025;-72
2023/04/09 02:37:00;;;;;;;2.90;2.13;;;;;;;;;;5027977;28;20445;-74
2023/04/09 02:39:26;;;;;;;5.03;2.47;;;;;;;;;;5025227;28;20025;-77
2023/04/09 02:41:52;;;;;;;6.15;2.35;;;;;;;;;;5008226;28;20056;-73
2023/04/09 02:44:18;;;;;;;5.60;2.38;;;;;;;;;;5025724;28;20160;-74
2023/04/09 02:46:47;;;;;;;6.95;2.63;;;;;;;;;;5026999;28;20026;-74
2023/04/09 02:49:14;;;;;;;9.43;2.58;;;;;;;;;;5009203;28;20033;-74
2023/04/09 02:51:40;;;;;;;5.65;2.33;;;;;;;;;;5028799;28;20041;-74
2023/04/09 02:54:06;;;;;;;2.67;2.05;;;;;;;;;;5030155;28;20021;-74
2023/04/09 02:56:32;;;;;;;5.90;2.42;;;;;;;;;;5030053;28;20028;-71
2023/04/09 02:58:58;;;;;;;6.68;1.90;;;;;;;;;;5028029;28;20828;-72
2023/04/09 03:01:24;;;;;;;2.92;1.90;;;;;;;;;;5030252;28;20529;-74
2023/04/09 03:03:50;;;;;;;3.53;2.25;;;;;;;;;;5027406;28;20065;-74
2023/04/09 03:06:19;;;;;;;2.38;1.90;;;;;;;;;;5026711;28;20277;-74
2023/04/09 03:08:46;;;;;;;4.03;2.33;;;;;;;;;;5027875;28;20488;-74
2023/04/09 03:11:12;;;;;;;5.38;2.10;;;;;;;;;;5025973;28;20469;-74
2023/04/09 03:13:38;;;;;;;4.80;2.10;;;;;;;;;;5030823;28;20029;-74
2023/04/09 03:16:05;;;;;;;7.30;2.40;;;;;;;;;;5025505;28;20028;-74
2023/04/09 03:18:31;;;;;;;2.60;1.90;;;;;;;;;;5022137;28;20429;-74
2023/04/09 03:20:57;;;;;;;3.53;1.73;;;;;;;;;;5023636;28;20036;-74
2023/04/09 03:23:23;;;;;;;7.60;2.33;;;;;;;;;;5024068;28;20036;-74
2023/04/09 03:25:49;;;;;;;7.35;1.80;;;;;;;;;;5026301;28;20482;-74
2023/04/09 03:28:15;;;;;;;7.70;1.80;;;;;;;;;;5027429;28;20044;-74
2023/04/09 03:30:42;;;;;;;5.07;1.50;;;;;;;;;;5009180;28;20072;-74
2023/04/09 03:33:08;;;;;;;5.63;1.70;;;;;;;;;;5024588;28;20552;-74
2023/04/09 03:35:34;;;;;;;3.53;1.35;;;;;;;;;;5023698;28;20021;-74
2023/04/09 03:38:00;;;;;;;4.75;1.60;;;;;;;;;;5004043;28;20413;-74
2023/04/09 03:40:26;;;;;;;4.80;1.55;;;;;;;;;;5023377;28;20537;-71
2023/04/09 03:42:53;;;;;;;8.30;1.70;;;;;;;;;;5024818;28;20032;-71
2023/04/09 03:45:19;;;;;;;3.15;1.88;;;;;;;;;;5030419;28;20057;-74
2023/04/09 03:47:45;;;;;;;2.00;1.27;;;;;;;;;;5025358;28;20017;-73
2023/04/09 03:50:12;;;;;;;6.68;1.83;;;;;;;;;;5026655;28;20029;-74
2023/04/09 03:52:38;;;;;;;4.50;1.20;;;;;;;;;;5026351;28;20033;-73
2023/04/09 03:55:04;;;;;;;6.10;1.70;;;;;;;;;;5025466;28;20288;-73
2023/04/09 03:57:30;;;;;;;3.20;1.58;;;;;;;;;;5022163;28;20235;-74
2023/04/09 03:59:57;;;;;;;5.63;1.75;;;;;;;;;;5021365;28;20029;-74
2023/04/09 04:02:25;;;;;;;4.15;1.70;;;;;;;;;;5023250;28;20018;-74
2023/04/09 04:04:51;;;;;;;3.28;1.50;;;;;;;;;;5022887;28;20225;-74
2023/04/09 04:07:17;;;;;;;3.60;1.45;;;;;;;;;;5022517;28;20036;-74
2023/04/09 04:09:44;;;;;;;3.65;1.50;;;;;;;;;;5022988;28;20040;-74
2023/04/09 04:12:10;;;;;;;5.40;1.70;;;;;;;;;;5022088;28;20027;-73
2023/04/09 04:14:36;;;;;;;2.72;1.20;;;;;;;;;;5025240;28;20544;-74
2023/04/09 04:17:02;;;;;;;2.85;1.23;;;;;;;;;;5023553;28;20495;-74
2023/04/09 04:19:28;;;;;;;4.50;1.77;;;;;;;;;;5022744;28;20474;-74
2023/04/09 04:21:54;;;;;;;3.30;1.58;;;;;;;;;;5021364;28;20021;-74
2023/04/09 04:24:21;;;;;;;4.45;1.63;;;;;;;;;;5022439;28;20108;-74
2023/04/09 04:26:47;;;;;;;3.38;1.70;;;;;;;;;;5019799;28;20024;-73
2023/04/09 04:29:13;;;;;;;6.50;1.63;;;;;;;;;;5022322;28;20026;-73
2023/04/09 04:31:39;;;;;;;5.78;2.20;;;;;;;;;;5016430;28;20024;-73
2023/04/09 04:34:05;;;;;;;3.85;1.70;;;;;;;;;;5022769;28;20087;-73
2023/04/09 04:36:32;;;;;;;3.28;1.30;;;;;;;;;;5022965;28;20033;-73
2023/04/09 04:38:58;;;;;;;4.55;1.73;;;;;;;;;;5021244;28;20029;-73
2023/04/09 04:41:24;;;;;;;5.70;1.80;;;;;;;;;;5021700;28;20025;-74
2023/04/09 04:43:50;;;;;;;4.78;1.58;;;;;;;;;;5022888;28;20034;-74
2023/04/09 04:46:16;;;;;;;2.75;1.38;;;;;;;;;;5019482;28;20048;-74
2023/04/09 04:48:42;;;;;;;5.35;1.60;;;;;;;;;;5022100;28;20034;-74
2023/04/09 04:51:09;;;;;;;4.60;1.30;;;;;;;;;;5020861;28;20521;-73
2023/04/09 04:53:35;;;;;;;2.78;1.55;;;;;;;;;;5002983;28;20472;-74
2023/04/09 04:56:01;;;;;;;4.03;1.65;;;;;;;;;;5021418;28;20505;-73
2023/04/09 04:58:29;;;;;;;3.38;1.20;;;;;;;;;;5029039;28;20107;-73
2023/04/09 05:00:55;;;;;;;5.50;1.98;;;;;;;;;;5025475;28;20030;-74
2023/04/09 05:03:21;;;;;;;3.65;1.58;;;;;;;;;;5020131;28;20036;-74
2023/04/09 05:05:47;;;;;;;3.30;1.40;;;;;;;;;;5024209;28;20029;-73
2023/04/09 05:08:13;;;;;;;5.60;1.83;;;;;;;;;;5022139;28;20023;-73
2023/04/09 05:10:42;;;;;;;4.63;1.40;;;;;;;;;;5022018;28;20029;-74
2023/04/09 05:13:09;;;;;;;5.53;2.28;;;;;;;;;;5003132;28;20087;-74
2023/04/09 05:15:38;;;;;;;4.55;1.73;;;;;;;;;;5021827;28;20036;-73
2023/04/09 05:18:04;;;;;;;4.35;1.40;;;;;;;;;;5020807;28;20450;-73
2023/04/09 05:20:30;;;;;;;6.10;1.52;;;;;;;;;;5021114;28;20022;-73
2023/04/09 05:22:57;;;;;;;4.40;1.60;;;;;;;;;;5016953;28;20090;-75
2023/04/09 05:25:23;;;;;;;4.40;1.30;;;;;;;;;;5022240;28;20048;-74
2023/04/09 05:27:49;;;;;;;3.45;1.50;;;;;;;;;;4987069;28;20060;-73
2023/04/09 05:30:15;;;;;;;5.10;1.40;;;;;;;;;;5002457;28;20033;-73
2023/04/09 05:32:42;;;;;;;3.45;1.30;;;;;;;;;;5020613;28;20041;-76
2023/04/09 05:35:08;;;;;;;5.45;2.13;;;;;;;;;;5020757;28;20041;-74
2023/04/09 05:37:34;;;;;;;5.85;1.30;;;;;;;;;;5021048;28;20025;-73
2023/04/09 05:40:00;;;;;;;6.72;1.30;;;;;;;;;;5022151;28;20041;-73
2023/04/09 05:42:26;;;;;;;2.80;1.15;;;;;;;;;;5021024;28;20022;-72
2023/04/09 05:44:53;;;;;;;5.65;1.67;;;;;;;;;;5023212;28;20087;-72
2023/04/09 05:47:19;;;;;;;4.07;1.35;;;;;;;;;;5023304;28;20029;-73
2023/04/09 05:49:45;;;;;;;5.80;1.52;;;;;;;;;;5023501;28;20036;-72
2023/04/09 05:52:11;;;;;;;3.95;1.20;;;;;;;;;;5023567;28;20502;-72
2023/04/09 05:54:37;;;;;;;3.42;1.23;;;;;;;;;;5023157;28;20455;-72
2023/04/09 05:57:04;;;;;;;3.42;1.10;;;;;;;;;;5021814;28;20095;-72
2023/04/09 05:59:30;;;;;;;5.10;1.23;;;;;;;;;;5022512;28;20097;-72
2023/04/09 06:01:56;;;;;;;4.97;1.45;;;;;;;;;;5022551;28;20639;-72
2023/04/09 06:04:22;;;;;;;6.78;1.45;;;;;;;;;;5022464;28;20052;-74
2023/04/09 06:06:48;;;;;;;7.75;1.13;;;;;;;;;;5022588;28;20028;-73
2023/04/09 06:09:14;;;;;;;4.07;1.02;;;;;;;;;;5027381;28;20108;-73
2023/04/09 06:11:41;;;;;;;4.20;1.00;;;;;;;;;;5026772;28;20029;-77
2023/04/09 06:14:07;;;;;;;2.13;1.20;;;;;;;;;;5026778;28;20030;-82
2023/04/09 06:16:33;;;;;;;7.55;1.65;;;;;;;;;;5024718;28;20489;-72
2023/04/09 06:18:59;;;;;;;3.63;0.93;;;;;;;;;;5025050;28;20112;-75
2023/04/09 06:21:26;;;;;;;5.32;1.20;;;;;;;;;;5026643;28;20025;-74
2023/04/09 06:23:52;;;;;;;3.13;1.10;;;;;;;;;;5007582;28;20047;-73
2023/04/09 06:26:18;;;;;;;3.72;1.52;;;;;;;;;;5026974;28;20043;-72
2023/04/09 06:28:44;;;;;;;2.38;1.00;;;;;;;;;;5024682;28;20040;-73
2023/04/09 06:31:11;;;;;;;3.28;1.00;;;;;;;;;;5026236;28;20025;-73
2023/04/09 06:33:37;;;;;;;3.90;1.20;;;;;;;;;;5027270;28;20489;-73
2023/04/09 06:36:03;;;;;;;7.97;1.30;;;;;;;;;;5023274;28;20385;-73
2023/04/09 06:38:29;;;;;;;4.50;1.25;;;;;;;;;;5024469;28;20025;-77
2023/04/09 06:40:56;;;;;;;4.15;1.20;;;;;;;;;;5006854;28;20103;-78
2023/04/09 06:43:22;;;;;;;4.93;1.20;;;;;;;;;;5007609;28;20083;-75
2023/04/09 06:45:49;;;;;;;2.53;1.58;;;;;;;;;;5026229;28;20037;-72
2023/04/09 06:48:15;;;;;;;8.63;2.70;;;;;;;;;;5025739;28;20021;-72
2023/04/09 06:50:41;;;;;;;4.53;2.10;;;;;;;;;;5025823;28;20640;-72
2023/04/09 06:53:07;;;;;;;6.60;1.75;;;;;;;;;;5025499;28;20028;-72
2023/04/09 06:55:34;;;;;;;7.95;1.45;;;;;;;;;;5022675;28;20025;-72
2023/04/09 06:58:01;;;;;;;4.15;0.98;;;;;;;;;;5025925;28;20035;-73
2023/04/09 07:00:27;;;;;;;2.20;1.20;;;;;;;;;;5007791;28;20108;-73
2023/04/09 07:02:54;;;;;;;3.97;1.30;;;;;;;;;;5026287;28;20026;-72
2023/04/09 07:05:20;;;;;;;3.33;1.10;;;;;;;;;;5024836;28;20163;-72
2023/04/09 07:07:46;;;;;;;2.28;1.17;;;;;;;;;;5023462;28;20021;-72
2023/04/09 07:10:12;;;;;;;4.72;1.58;;;;;;;;;;5025890;28;20527;-72
2023/04/09 07:12:39;;;;;;;3.88;1.08;;;;;;;;;;5025291;28;20025;-72
2023/04/09 07:15:08;;;;;;;2.45;1.20;;;;;;;;;;5018003;28;20041;-73
2023/04/09 07:17:35;;;;;;;4.50;1.20;;;;;;;;;;5021911;28;20021;-73
2023/04/09 07:20:01;;;;;;;7.22;1.60;;;;;;;;;;5007347;28;20560;-73
2023/04/09 07:22:28;;;;;;;3.78;1.30;;;;;;;;;;5024735;28;20048;-72
2023/04/09 07:24:55;;;;;;;4.30;1.02;;;;;;;;;;5025094;28;20489;-73
2023/04/09 07:27:22;;;;;;;2.95;1.10;;;;;;;;;;5007741;28;20429;-72
2023/04/09 07:29:48;;;;;;;3.28;1.50;;;;;;;;;;5025883;28;20532;-73
2023/04/09 07:32:15;;;;;;;2.92;1.13;;;;;;;;;;5027187;28;20509;-73
2023/04/09 07:34:41;;;;;;;2.20;0.90;;;;;;;;;;5017631;28;20040;-72
2023/04/09 07:37:07;;;;;;;2.80;1.13;;;;;;;;;;5022961;28;20026;-73
2023/04/09 07:39:34;;;;;;;3.08;1.27;;;;;;;;;;5022407;28;20025;-74
2023/04/09 07:42:03;;;;;;;3.53;1.25;;;;;;;;;;5026093;28;20456;-73
2023/04/09 07:44:33;;;;;;;2.63;1.48;;;;;;;;;;5027627;28;20103;-75
2023/04/09 07:46:59;;;;;;;4.72;1.30;;;;;;;;;;5025305;28;20029;-72
2023/04/09 07:49:29;;;;;;;1.55;0.90;;;;;;;;;;5023659;28;20036;-77
2023/04/09 07:51:56;;;;;;;1.80;1.08;;;;;;;;;;5015381;28;20046;-73
2023/04/09 07:54:22;;;;;;;3.67;1.33;;;;;;;;;;5021414;28;20037;-73
2023/04/09 07:56:48;;;;;;;4.78;1.23;;;;;;;;;;5021938;28;20133;-72
2023/04/09 08:02:31;;;;;;;1.40;0.88;;;;;;;;;;4966848;28;20737;-88
2023/04/09 08:04:57;;;;;;;3.25;0.95;;;;;;;;;;5005855;28;20101;-89
2023/04/09 08:07:24;;;;;;;1.33;0.80;;;;;;;;;;5006456;28;20022;-89
2023/04/09 08:09:50;;;;;;;3.28;1.08;;;;;;;;;;5006982;28;20034;-90
2023/04/09 08:12:17;;;;;;;7.50;1.48;;;;;;;;;;5007406;28;20061;-90
2023/04/09 08:14:43;;;;;;;3.10;1.20;;;;;;;;;;5006285;28;20017;-89
2023/04/09 08:17:09;;;;;;;3.78;1.00;;;;;;;;;;5003557;28;20065;-89
2023/04/09 08:19:36;;;;;;;2.33;1.45;;;;;;;;;;5006930;28;20067;-88
2023/04/09 08:22:02;;;;;;;2.75;1.02;;;;;;;;;;5003917;28;20026;-89
2023/04/09 08:24:28;;;;;;;2.28;0.80;;;;;;;;;;5006974;28;20037;-89
2023/04/09 08:26:55;;;;;;;2.58;1.00;;;;;;;;;;5008915;28;20006;-88
2023/04/09 08:29:21;;;;;;;3.00;1.17;;;;;;;;;;5004862;28;20406;-90
2023/04/09 08:31:47;;;;;;;3.17;1.00;;;;;;;;;;5006675;28;20021;-88
2023/04/09 08:34:16;;;;;;;1.23;0.90;;;;;;;;;;5005671;28;20064;-89
2023/04/09 08:36:45;;;;;;;2.92;0.95;;;;;;;;;;5013485;28;20025;-91
2023/04/09 08:39:11;;;;;;;1.98;0.90;;;;;;;;;;5018174;28;20475;-90
2023/04/09 08:41:39;;;;;;;5.85;1.00;;;;;;;;;;4989572;28;20410;-90
2023/04/09 08:44:06;;;;;;;2.88;0.95;;;;;;;;;;5003608;28;20514;-90
2023/04/09 08:46:32;;;;;;;2.28;1.00;;;;;;;;;;5012840;28;20044;-89
2023/04/09 08:49:00;;;;;;;2.65;0.90;;;;;;;;;;5006311;28;20502;-88
2023/04/09 08:51:27;;;;;;;1.85;0.80;;;;;;;;;;5001743;28;20026;-87
2023/04/09 08:53:57;;;;;;;2.50;1.15;;;;;;;;;;5001774;28;20034;-87
2023/04/09 08:56:25;;;;;;;3.58;0.90;;;;;;;;;;5002486;28;20056;-87
2023/04/09 08:58:52;;;;;;;3.78;1.00;;;;;;;;;;5001810;28;20487;-87
2023/04/09 09:01:19;;;;;;;3.35;1.00;;;;;;;;;;5002762;28;20036;-86
2023/04/09 09:04:05;;;;;;;4.15;1.27;;;;;;;;;;5005642;28;20570;-86
2023/04/09 09:06:32;;;;;;;4.97;1.30;;;;;;;;;;4999007;28;20029;-88
2023/04/09 09:09:03;;;;;;;9.43;1.05;;;;;;;;;;5007424;28;20048;-90
2023/04/09 09:11:29;;;;;;;3.53;0.90;;;;;;;;;;4999807;28;20618;-87
2023/04/09 09:14:06;;;;;;;5.57;1.15;;;;;;;;;;5001459;28;20094;-87
2023/04/09 09:16:33;;;;;;;2.00;0.95;;;;;;;;;;5006419;28;20029;-85
2023/04/09 09:19:00;;;;;;;1.63;0.95;;;;;;;;;;5001389;28;20127;-87
2023/04/09 09:21:27;;;;;;;1.85;1.00;;;;;;;;;;5011498;28;20487;-89
2023/04/09 09:23:54;;;;;;;3.55;1.00;;;;;;;;;;5007425;28;20049;-88
2023/04/09 09:26:21;;;;;;;5.05;1.00;;;;;;;;;;5006081;28;20070;-89
2023/04/09 09:28:48;;;;;;;2.30;1.00;;;;;;;;;;5006102;28;20021;-87
2023/04/09 09:31:15;;;;;;;2.45;1.08;;;;;;;;;;5000160;28;20025;-85
2023/04/09 09:33:42;;;;;;;1.55;1.20;;;;;;;;;;5004621;28;20044;-90
2023/04/09 09:36:08;;;;;;;2.92;1.25;;;;;;;;;;5005632;28;20025;-89
2023/04/09 09:38:51;;;;;;;3.15;1.10;;;;;;;;;;5011139;28;20075;-91
2023/04/09 09:41:18;;;;;;;3.95;1.20;;;;;;;;;;5008609;28;20025;-88
2023/04/09 09:43:45;;;;;;;3.60;1.20;;;;;;;;;;5010003;28;20518;-91
2023/04/09 09:46:11;;;;;;;2.50;1.13;;;;;;;;;;5010539;28;20033;-92
2023/04/09 09:48:38;;;;;;;2.90;1.42;;;;;;;;;;5008427;28;20029;-91
2023/04/09 09:51:13;;;;;;;3.10;1.23;;;;;;;;;;5006882;28;20052;-88
2023/04/09 09:53:41;;;;;;;2.40;1.00;;;;;;;;;;5008241;28;20025;-87
2023/04/09 09:56:14;;;;;;;2.45;1.23;;;;;;;;;;5005874;28;20026;-88
2023/04/09 09:58:43;;;;;;;3.20;1.23;;;;;;;;;;5030322;28;20028;-90
2023/04/09 10:01:12;;;;;;;7.70;2.00;;;;;;;;;;5007645;28;20040;-90
2023/04/09 10:03:39;;;;;;;2.97;1.10;;;;;;;;;;5005327;28;20506;-90
2023/04/09 10:06:06;;;;;;;4.82;2.60;;;;;;;;;;5003385;28;20030;-88
2023/04/09 10:08:34;;;;;;;8.98;6.50;;;;;;;;;;5006611;28;20537;-88
2023/04/09 10:11:01;;;;;;;10.63;6.85;;;;;;;;;;5007488;28;20109;-88
2023/04/09 10:13:33;;;;;;;11.38;4.95;;;;;;;;;;5007592;28;20026;-88
2023/04/09 10:16:00;;;;;;;5.25;3.05;;;;;;;;;;5006227;28;20070;-91
2023/04/09 10:18:26;;;;;;;3.05;1.83;;;;;;;;;;5013499;28;20154;-86
2023/04/09 10:21:02;;;;;;;2.10;1.73;;;;;;;;;;5002314;28;20034;-86
2023/04/09 10:23:38;;;;;;;5.68;1.65;;;;;;;;;;5009271;28;20060;-86
2023/04/09 10:26:05;;;;;;;2.05;1.50;;;;;;;;;;5006649;28;20032;-86
2023/04/09 10:28:32;;;;;;;1.70;1.20;;;;;;;;;;5006520;28;20171;-86
2023/04/09 10:30:58;;;;;;;8.57;1.45;;;;;;;;;;5006506;28;20029;-88
2023/04/09 10:33:26;;;;;;;3.25;1.23;;;;;;;;;;5007962;28;20091;-87
2023/04/09 10:35:54;;;;;;;4.25;1.50;;;;;;;;;;5007139;28;20029;-88
2023/04/09 10:38:52;;;;;;;7.03;1.50;;;;;;;;;;5007781;28;20036;-87
2023/04/09 10:41:24;;;;;;;4.18;1.58;;;;;;;;;;4988369;28;20091;-88
2023/04/09 10:43:51;;;;;;;3.40;1.63;;;;;;;;;;5005106;28;20073;-88
2023/04/09 10:46:29;;;;;;;15.98;2.92;;;;;;;;;;5011370;28;20025;-88
2023/04/09 10:49:14;;;;;;;7.40;2.85;;;;;;;;;;5004559;28;20118;-86
2023/04/09 10:51:41;;;;;;;2.45;1.40;;;;;;;;;;5000698;28;20530;-87
2023/04/09 10:54:26;;;;;;;5.43;2.10;;;;;;;;;;5016124;28;20398;-86
2023/04/09 10:57:12;;;;;;;5.78;1.52;;;;;;;;;;5001582;28;20040;-86
2023/04/09 10:59:43;;;;;;;2.80;1.52;;;;;;;;;;5000899;28;20025;-86
2023/04/09 11:02:28;;;;;;;4.32;1.80;;;;;;;;;;5009825;28;20095;-86
2023/04/09 11:05:06;;;;;;;2.38;1.83;;;;;;;;;;5003898;28;20060;-86
2023/04/09 11:07:34;;;;;;;3.80;1.92;;;;;;;;;;5003272;28;20029;-84
2023/04/09 11:10:01;;;;;;;3.00;1.67;;;;;;;;;;5003294;28;20029;-86
2023/04/09 11:12:27;;;;;;;4.25;2.25;;;;;;;;;;5004450;28;20163;-86
2023/04/09 11:14:53;;;;;;;2.97;1.80;;;;;;;;;;5001454;28;20112;-86
2023/04/09 11:17:19;;;;;;;3.25;1.77;;;;;;;;;;5004997;28;20725;-87
2023/04/09 11:19:46;;;;;;;2.38;1.80;;;;;;;;;;5003843;28;20526;-85
2023/04/09 11:22:12;;;;;;;5.22;1.95;;;;;;;;;;5004735;28;20039;-85
2023/04/09 11:24:42;;;;;;;3.15;1.50;;;;;;;;;;5002610;28;20076;-85
2023/04/09 11:27:08;;;;;;;2.88;1.50;;;;;;;;;;5002948;28;20040;-85
2023/04/09 11:29:35;;;;;;;4.20;1.80;;;;;;;;;;5004279;28;20032;-86
2023/04/09 11:32:04;;;;;;;4.93;2.00;;;;;;;;;;5003210;28;20061;-85
2023/04/09 11:34:30;;;;;;;6.43;2.10;;;;;;;;;;5020375;28;20057;-84
2023/04/09 11:36:57;;;;;;;3.50;1.98;;;;;;;;;;5005292;28;20124;-84
2023/04/09 11:39:25;;;;;;;6.85;2.55;;;;;;;;;;5005986;28;20025;-87
2023/04/09 11:41:51;;;;;;;5.35;2.30;;;;;;;;;;5003910;28;20029;-89
2023/04/09 11:44:17;;;;;;;5.40;2.10;;;;;;;;;;5022052;28;20115;-87
2023/04/09 11:46:43;;;;;;;3.95;1.70;;;;;;;;;;5004709;28;20144;-88
2023/04/09 11:49:10;;;;;;;4.07;1.73;;;;;;;;;;5004668;28;20100;-88
2023/04/09 11:51:36;;;;;;;3.00;2.03;;;;;;;;;;5006740;28;20061;-86
2023/04/09 11:54:02;;;;;;;3.35;2.10;;;;;;;;;;5004444;28;20530;-93
2023/04/09 11:56:30;;;;;;;2.35;1.42;;;;;;;;;;5005014;28;20549;-91
2023/04/09 11:58:56;;;;;;;3.85;1.42;;;;;;;;;;5008440;28;20577;-87
2023/04/09 12:01:22;;;;;;;5.57;2.22;;;;;;;;;;5006278;28;20116;-91
2023/04/09 12:03:55;;;;;;;3.17;1.77;;;;;;;;;;5004185;28;20085;-88
2023/04/09 12:06:23;;;;;;;4.65;1.60;;;;;;;;;;5004343;28;20109;-89
2023/04/09 12:08:56;;;;;;;2.67;1.60;;;;;;;;;;5010399;28;20021;-89
2023/04/09 12:11:28;;;;;;;2.83;1.60;;;;;;;;;;5006599;28;20574;-88
2023/04/09 12:14:01;;;;;;;2.85;1.73;;;;;;;;;;4999524;28;20227;-91
2023/04/09 12:16:31;;;;;;;4.38;1.40;;;;;;;;;;5005246;28;20120;-87
2023/04/09 12:19:00;;;;;;;2.75;1.45;;;;;;;;;;5019829;28;20095;-85
2023/04/09 12:21:45;;;;;;;2.85;1.73;;;;;;;;;;5024538;28;20492;-87
2023/04/09 12:24:11;;;;;;;3.80;1.73;;;;;;;;;;5022976;28;20037;-88
2023/04/09 12:26:37;;;;;;;1.85;1.20;;;;;;;;;;4999673;28;20226;-88
2023/04/09 12:29:03;;;;;;;4.30;1.40;;;;;;;;;;5003087;28;20061;-85
2023/04/09 12:31:30;;;;;;;2.13;1.40;;;;;;;;;;5001042;28;20029;-90
2023/04/09 12:33:56;;;;;;;2.40;1.40;;;;;;;;;;5003496;28;20037;-86
2023/04/09 12:36:23;;;;;;;11.45;2.42;;;;;;;;;;5004952;28;20025;-90
2023/04/09 12:38:49;;;;;;;4.50;1.75;;;;;;;;;;5004018;28;20445;-88
2023/04/09 12:41:16;;;;;;;6.15;1.67;;;;;;;;;;5001148;28;20029;-85
2023/04/09 12:43:42;;;;;;;1.85;1.45;;;;;;;;;;4999048;28;20139;-83
2023/04/09 12:46:09;;;;;;;3.05;1.50;;;;;;;;;;4998588;28;20021;-89
2023/04/09 12:48:35;;;;;;;3.03;1.48;;;;;;;;;;5002712;28;20029;-86
2023/04/09 12:51:01;;;;;;;3.47;1.23;;;;;;;;;;5003139;28;20030;-86
2023/04/09 12:53:27;;;;;;;2.15;1.23;;;;;;;;;;5001610;28;20487;-88
2023/04/09 12:55:54;;;;;;;2.08;1.60;;;;;;;;;;5005601;28;20152;-88
2023/04/09 12:58:20;;;;;;;4.75;1.42;;;;;;;;;;5003663;28;20491;-86
2023/04/09 13:00:46;;;;;;;2.22;1.33;;;;;;;;;;5005816;28;20057;-86
2023/04/09 13:03:15;;;;;;;2.10;1.40;;;;;;;;;;5000598;28;20050;-84
2023/04/09 13:05:42;;;;;;;1.65;1.20;;;;;;;;;;5001674;28;20046;-87
2023/04/09 13:08:09;;;;;;;6.30;1.65;;;;;;;;;;5007833;28;20028;-86
2023/04/09 13:10:35;;;;;;;4.47;1.70;;;;;;;;;;5018270;28;20030;-86
2023/04/09 13:13:02;;;;;;;3.08;1.50;;;;;;;;;;5007234;28;20030;-86
2023/04/09 13:15:28;;;;;;;2.85;1.40;;;;;;;;;;5004136;28;20028;-86
2023/04/09 13:17:55;;;;;;;5.68;2.00;;;;;;;;;;5005069;28;20076;-86
2023/04/09 13:20:22;;;;;;;3.70;1.45;;;;;;;;;;5006615;28;20138;-90
2023/04/09 13:22:48;;;;;;;4.10;1.20;;;;;;;;;;5003354;28;20551;-86
2023/04/09 13:25:15;;;;;;;9.05;2.33;;;;;;;;;;5006144;28;20128;-85
2023/04/09 13:27:41;;;;;;;2.67;1.30;;;;;;;;;;5003301;28;20022;-84
2023/04/09 13:30:08;;;;;;;2.20;1.30;;;;;;;;;;5003998;28;20030;-82
2023/04/09 13:32:34;;;;;;;2.92;1.20;;;;;;;;;;5002652;28;20108;-86
2023/04/09 13:35:00;;;;;;;2.30;1.30;;;;;;;;;;5002100;28;20052;-84
2023/04/09 13:37:26;;;;;;;2.45;1.23;;;;;;;;;;4999565;28;20029;-85
2023/04/09 13:39:52;;;;;;;2.33;1.20;;;;;;;;;;5000879;28;20521;-84
2023/04/09 13:42:19;;;;;;;3.92;1.45;;;;;;;;;;5002024;28;20112;-84
2023/04/09 13:44:45;;;;;;;5.93;1.40;;;;;;;;;;5002835;28;20037;-85
2023/04/09 13:47:12;;;;;;;2.55;1.85;;;;;;;;;;5000876;28;20057;-85
2023/04/09 13:49:41;;;;;;;2.75;1.17;;;;;;;;;;5005696;28;20048;-86
2023/04/09 13:52:08;;;;;;;4.90;1.42;;;;;;;;;;5002400;28;20131;-90
2023/04/09 13:54:34;;;;;;;5.95;2.20;;;;;;;;;;5006064;28;20085;-86
2023/04/09 13:57:01;;;;;;;3.92;1.52;;;;;;;;;;4996550;28;20513;-86
2023/04/09 13:59:27;;;;;;;2.38;1.17;;;;;;;;;;4997713;28;20111;-87
2023/04/09 14:01:53;;;;;;;2.53;1.20;;;;;;;;;;5015322;28;20191;-85
2023/04/09 14:04:20;;;;;;;6.60;1.33;;;;;;;;;;4996688;28;20037;-83
2023/04/09 14:06:48;;;;;;;4.95;1.80;;;;;;;;;;4979631;28;20068;-83
2023/04/09 14:09:14;;;;;;;1.77;1.10;;;;;;;;;;4995403;28;20017;-85
2023/04/09 14:11:40;;;;;;;5.30;1.35;;;;;;;;;;4995434;28;20113;-84
2023/04/09 14:14:06;;;;;;;4.32;1.52;;;;;;;;;;4997541;28;20479;-86
2023/04/09 14:16:33;;;;;;;2.28;1.30;;;;;;;;;;4996903;28;20028;-85
2023/04/09 14:18:59;;;;;;;4.25;1.60;;;;;;;;;;4999548;28;20021;-84
2023/04/09 14:21:25;;;;;;;2.85;1.35;;;;;;;;;;4997945;28;20372;-84
2023/04/09 14:23:52;;;;;;;4.00;1.38;;;;;;;;;;4996187;28;20095;-85
2023/04/09 14:26:18;;;;;;;3.80;1.70;;;;;;;;;;5003034;28;20107;-89
2023/04/09 14:28:46;;;;;;;2.80;1.58;;;;;;;;;;5005017;28;20033;-89
2023/04/09 14:31:13;;;;;;;2.67;1.65;;;;;;;;;;5006501;28;20037;-90
2023/04/09 14:33:39;;;;;;;9.18;2.17;;;;;;;;;;5002411;28;20030;-89
2023/04/09 14:36:06;;;;;;;6.18;1.40;;;;;;;;;;5003596;28;20025;-88
2023/04/09 14:38:33;;;;;;;4.95;1.65;;;;;;;;;;5000866;28;20081;-89
2023/04/09 14:40:59;;;;;;;4.40;1.70;;;;;;;;;;5008039;28;20339;-92
2023/04/09 14:43:26;;;;;;;3.22;1.50;;;;;;;;;;5015563;28;20049;-92
2023/04/09 14:45:53;;;;;;;3.80;1.52;;;;;;;;;;5011126;28;20079;-95
2023/04/09 14:48:19;;;;;;;4.18;2.72;;;;;;;;;;5009626;28;20112;-95